createdAt,value
2022-09-04T00:00:14.957Z,1.58
2022-09-04T00:02:41.228Z,1.25
2022-09-04T00:05:19.639Z,1.58
2022-09-04T00:07:49.405Z,1.90
2022-09-04T00:10:23.247Z,1.25
2022-09-04T00:12:49.514Z,2.22
2022-09-04T00:15:21.234Z,1.38
2022-09-04T00:17:53.269Z,1.13
2022-09-04T00:20:25.421Z,1.88
2022-09-04T00:22:58.041Z,1.77
2022-09-04T00:25:27.184Z,1.58
2022-09-04T00:27:55.662Z,1.87
2022-09-04T00:30:22.404Z,1.98
2022-09-04T00:32:57.669Z,1.48
2022-09-04T00:35:27.450Z,1.80
2022-09-04T00:38:06.468Z,1.83
2022-09-04T00:40:51.712Z,1.60
2022-09-04T00:43:36.845Z,1.83
2022-09-04T00:46:26.882Z,1.75
2022-09-04T00:49:17.051Z,1.85
2022-09-04T00:51:52.214Z,1.60
2022-09-04T00:54:31.001Z,2.08
2022-09-04T00:57:14.021Z,2.22
2022-09-04T00:59:40.379Z,1.30
2022-09-04T01:02:19.319Z,1.63
2022-09-04T01:05:04.495Z,2.00
2022-09-04T01:07:40.048Z,1.80
2022-09-04T01:10:23.070Z,3.85
2022-09-04T01:12:52.987Z,2.08
2022-09-04T01:15:22.305Z,1.55
2022-09-04T01:17:56.599Z,2.28
2022-09-04T01:20:46.303Z,1.55
2022-09-04T01:23:12.602Z,1.95
2022-09-04T01:25:57.833Z,1.60
2022-09-04T01:28:24.143Z,1.58
2022-09-04T01:31:02.611Z,1.33
2022-09-04T01:33:33.357Z,1.98
2022-09-04T01:35:59.677Z,1.95
2022-09-04T01:38:33.595Z,2.20
2022-09-04T01:41:03.652Z,1.65
2022-09-04T01:43:30.971Z,1.83
2022-09-04T01:46:06.307Z,1.58
2022-09-04T01:48:43.024Z,2.08
2022-09-04T01:51:14.235Z,1.80
2022-09-04T01:53:42.241Z,2.20
2022-09-04T01:56:13.131Z,2.10
2022-09-04T01:58:39.395Z,1.65
2022-09-04T02:01:21.375Z,1.48
2022-09-04T02:03:52.323Z,1.90
2022-09-04T02:06:29.175Z,1.63
2022-09-04T02:08:55.438Z,1.90
2022-09-04T02:11:27.961Z,1.98
2022-09-04T02:14:09.820Z,1.58
2022-09-04T02:16:40.451Z,1.70
2022-09-04T02:19:24.089Z,1.85
2022-09-04T02:22:01.948Z,1.92
2022-09-04T02:24:47.095Z,2.25
2022-09-04T02:27:21.287Z,1.70
2022-09-04T02:29:47.572Z,1.75
2022-09-04T02:32:18.491Z,2.08
2022-09-04T02:34:50.789Z,2.20
2022-09-04T02:37:22.358Z,2.65
2022-09-04T02:39:53.895Z,1.67
2022-09-04T02:42:23.302Z,2.20
2022-09-04T02:44:58.170Z,1.90
2022-09-04T02:47:31.606Z,2.22
2022-09-04T02:50:16.764Z,1.83
2022-09-04T02:52:52.272Z,1.98
2022-09-04T02:55:37.425Z,1.90
2022-09-04T02:58:19.645Z,1.77
2022-09-04T03:00:59.969Z,1.70
2022-09-04T03:03:34.757Z,1.80
2022-09-04T03:06:13.457Z,2.10
2022-09-04T03:08:46.116Z,2.10
2022-09-04T03:11:16.541Z,1.60
2022-09-04T03:13:42.830Z,1.42
2022-09-04T03:16:32.427Z,2.35
2022-09-04T03:19:10.357Z,1.67
2022-09-04T03:21:41.652Z,2.58
2022-09-04T03:24:17.190Z,2.65
2022-09-04T03:26:47.032Z,2.88
2022-09-04T03:29:32.005Z,3.05
2022-09-04T03:31:58.647Z,2.40
2022-09-04T03:34:43.626Z,3.05
2022-09-04T03:37:16.018Z,2.10
2022-09-04T03:39:46.250Z,2.25
2022-09-04T03:42:33.815Z,1.92
2022-09-04T03:45:20.161Z,2.63
2022-09-04T03:48:04.952Z,2.17
2022-09-04T03:50:43.560Z,2.03
2022-09-04T03:53:12.973Z,1.85
2022-09-04T03:55:54.673Z,3.25
2022-09-04T03:58:36.927Z,2.08
2022-09-04T04:01:04.151Z,2.40
2022-09-04T04:03:44.865Z,2.47
2022-09-04T04:06:17.380Z,3.30
2022-09-04T04:09:02.530Z,2.33
2022-09-04T04:11:46.071Z,2.15
2022-09-04T04:14:12.354Z,2.60
2022-09-04T04:16:57.150Z,2.45
2022-09-04T04:19:23.491Z,2.58
2022-09-04T04:22:08.719Z,1.83
2022-09-04T04:24:50.454Z,2.35
2022-09-04T04:27:35.990Z,1.90
2022-09-04T04:30:06.976Z,3.20
2022-09-04T04:32:45.183Z,2.28
2022-09-04T04:35:17.938Z,2.53
2022-09-04T04:37:59.331Z,1.85
2022-09-04T04:40:28.373Z,1.95
2022-09-04T04:43:14.001Z,2.53
2022-09-04T04:45:52.825Z,2.95
2022-09-04T04:48:47.436Z,2.33
2022-09-04T04:51:16.544Z,3.03
2022-09-04T04:53:45.827Z,1.88
2022-09-04T04:56:17.686Z,2.30
2022-09-04T04:58:53.705Z,2.10
2022-09-04T05:01:23.211Z,2.20
2022-09-04T05:03:55.274Z,2.10
2022-09-04T05:06:41.469Z,2.50
2022-09-04T05:09:20.159Z,2.13
2022-09-04T05:12:05.403Z,2.35
2022-09-04T05:14:45.849Z,2.40
2022-09-04T05:17:12.196Z,2.53
2022-09-04T05:19:44.934Z,2.38
2022-09-04T05:22:25.865Z,1.95
2022-09-04T05:25:13.491Z,1.95
2022-09-04T05:27:48.766Z,1.88
2022-09-04T05:30:50.635Z,1.70
2022-09-04T05:33:22.470Z,1.73
2022-09-04T05:35:52.996Z,1.63
2022-09-04T05:38:23.095Z,2.35
2022-09-04T05:40:57.445Z,1.40
2022-09-04T05:43:29.764Z,2.03
2022-09-04T05:46:10.275Z,1.45
2022-09-04T05:48:45.735Z,1.63
2022-09-04T05:51:34.914Z,2.25
2022-09-04T05:54:14.735Z,1.80
2022-09-04T05:56:50.087Z,1.77
2022-09-04T05:59:35.303Z,2.05
2022-09-04T06:02:21.210Z,1.70
2022-09-04T06:05:06.326Z,1.40
2022-09-04T06:07:51.371Z,2.63
2022-09-04T06:10:24.197Z,2.50
2022-09-04T06:13:29.046Z,1.75
2022-09-04T06:16:04.854Z,1.60
2022-09-04T06:18:49.962Z,1.63
2022-09-04T06:21:16.298Z,1.65
2022-09-04T06:23:51.762Z,1.30
2022-09-04T06:26:26.905Z,1.58
2022-09-04T06:29:02.420Z,1.65
2022-09-04T06:31:44.715Z,1.30
2022-09-04T06:34:21.722Z,2.15
2022-09-04T06:37:07.030Z,1.33
2022-09-04T06:39:40.515Z,1.70
2022-09-04T06:42:13.088Z,1.20
2022-09-04T06:44:42.361Z,1.10
2022-09-04T06:47:11.715Z,1.40
2022-09-04T06:49:48.596Z,1.15
2022-09-04T06:52:25.192Z,1.85
2022-09-04T06:55:13.439Z,1.60
2022-09-04T06:57:43.332Z,1.63
2022-09-04T07:00:11.709Z,1.52
2022-09-04T07:02:50.196Z,1.23
2022-09-04T07:05:39.639Z,1.40
2022-09-04T07:08:05.908Z,1.00
2022-09-04T07:10:40.073Z,1.35
2022-09-04T07:13:19.269Z,1.77
2022-09-04T07:15:48.555Z,1.00
2022-09-04T07:18:30.758Z,1.25
2022-09-04T07:21:15.737Z,1.40
2022-09-04T07:24:00.805Z,1.50
2022-09-04T07:26:33.578Z,1.85
2022-09-04T07:28:59.843Z,1.15
2022-09-04T07:32:04.898Z,1.60
2022-09-04T07:34:54.435Z,1.40
2022-09-04T07:37:24.895Z,1.48
2022-09-04T07:40:20.435Z,0.95
2022-09-04T07:42:50.140Z,1.33
2022-09-04T07:45:29.993Z,1.02
2022-09-04T07:48:14.849Z,1.95
2022-09-04T07:50:50.489Z,1.75
2022-09-04T07:53:17.298Z,1.13
2022-09-04T07:55:49.376Z,3.40
2022-09-04T07:58:31.519Z,1.35
2022-09-04T08:01:23.257Z,1.15
2022-09-04T08:04:05.138Z,1.52
2022-09-04T08:06:37.645Z,0.98
2022-09-04T08:09:03.924Z,1.08
2022-09-04T08:11:48.946Z,1.38
2022-09-04T08:14:19.728Z,0.80
2022-09-04T08:16:56.614Z,1.33
2022-09-04T08:19:23.119Z,1.35
2022-09-04T08:21:49.928Z,1.08
2022-09-04T08:24:30.352Z,0.77
2022-09-04T08:26:56.679Z,2.17
2022-09-04T08:29:58.311Z,1.60
2022-09-04T08:32:43.084Z,1.02
2022-09-04T08:35:22.276Z,0.50
2022-09-04T08:38:00.582Z,1.13
2022-09-04T08:40:56.895Z,1.02
2022-09-04T08:43:43.495Z,1.05
2022-09-04T08:46:23.136Z,0.80
2022-09-04T08:49:07.543Z,0.82
2022-09-04T08:51:52.695Z,1.38
2022-09-04T08:54:31.127Z,0.50
2022-09-04T08:57:06.658Z,1.33
2022-09-04T08:59:35.967Z,0.57
2022-09-04T09:02:04.139Z,0.95
2022-09-04T09:04:33.596Z,1.13
2022-09-04T09:06:59.893Z,0.55
2022-09-04T09:09:45.113Z,0.80
2022-09-04T09:12:17.589Z,1.00
2022-09-04T09:15:10.918Z,0.57
2022-09-04T09:17:54.097Z,0.80
2022-09-04T09:20:31.117Z,0.95
2022-09-04T09:23:18.379Z,0.25
2022-09-04T09:26:06.208Z,0.50
2022-09-04T09:28:35.589Z,0.60
2022-09-04T09:31:10.796Z,0.55
2022-09-04T09:34:06.253Z,0.40
2022-09-04T09:36:51.090Z,0.50
2022-09-04T09:39:30.423Z,1.05
2022-09-04T09:42:24.409Z,0.43
2022-09-04T09:44:56.558Z,0.55
2022-09-04T09:47:41.675Z,0.70
2022-09-04T09:50:16.929Z,0.63
2022-09-04T09:52:50.306Z,0.45
2022-09-04T09:55:31.651Z,0.28
2022-09-04T09:58:00.995Z,0.45
2022-09-04T10:00:36.662Z,0.35
2022-09-04T10:03:08.688Z,0.43
2022-09-04T10:05:44.494Z,0.70
2022-09-04T10:08:33.833Z,0.20
2022-09-04T10:11:23.719Z,0.30
2022-09-04T10:14:06.555Z,0.50
2022-09-04T10:16:52.510Z,0.40
2022-09-04T10:19:27.832Z,0.60
2022-09-04T10:22:06.809Z,0.45
2022-09-04T10:24:53.503Z,0.63
2022-09-04T10:27:25.780Z,0.30
2022-09-04T10:30:01.177Z,0.50
2022-09-04T10:32:33.016Z,1.30
2022-09-04T10:35:11.246Z,0.40
2022-09-04T10:37:56.225Z,0.32
2022-09-04T10:40:39.626Z,0.45
2022-09-04T10:43:16.394Z,0.57
2022-09-04T10:45:45.537Z,0.32
2022-09-04T10:48:31.001Z,0.17
2022-09-04T10:51:25.404Z,0.28
2022-09-04T10:54:16.782Z,0.32
2022-09-04T10:57:08.869Z,0.50
2022-09-04T10:59:45.116Z,0.20
2022-09-04T11:02:22.221Z,0.50
2022-09-04T11:05:03.604Z,0.20
2022-09-04T11:07:49.157Z,0.35
2022-09-04T11:10:41.449Z,0.60
2022-09-04T11:13:23.178Z,0.30
2022-09-04T11:15:58.108Z,0.30
2022-09-04T11:18:34.425Z,0.40
2022-09-04T11:21:09.756Z,0.30
2022-09-04T11:23:55.950Z,0.05
2022-09-04T11:26:23.566Z,0.10
2022-09-04T11:28:57.056Z,0.10
2022-09-04T11:31:28.643Z,0.20
2022-09-04T11:33:57.749Z,0.10
2022-09-04T11:36:30.303Z,0.20
2022-09-04T11:39:11.198Z,0.10
2022-09-04T11:41:43.717Z,0.10
2022-09-04T11:44:25.758Z,0.00
2022-09-04T11:47:12.147Z,0.32
2022-09-04T11:49:52.102Z,0.20
2022-09-04T11:52:37.789Z,0.35
2022-09-04T11:55:23.040Z,0.10
2022-09-04T11:58:03.332Z,0.30
2022-09-04T12:00:48.729Z,0.00
2022-09-04T12:03:30.915Z,0.28
2022-09-04T12:06:09.865Z,0.17
2022-09-04T12:08:55.306Z,0.00
2022-09-04T12:11:31.946Z,0.05
2022-09-04T12:14:12.081Z,0.15
2022-09-04T12:16:50.851Z,0.00
2022-09-04T12:19:26.918Z,0.10
2022-09-04T12:22:14.509Z,0.00
2022-09-04T12:25:06.278Z,0.00
2022-09-04T12:27:52.531Z,0.00
2022-09-04T12:30:25.993Z,0.10
2022-09-04T12:32:58.480Z,0.17
2022-09-04T12:35:35.073Z,0.43
2022-09-04T12:38:04.466Z,0.10
2022-09-04T12:40:42.973Z,0.30
2022-09-04T12:43:16.457Z,0.30
2022-09-04T12:45:45.743Z,0.22
2022-09-04T12:48:27.737Z,0.10
2022-09-04T12:51:01.346Z,0.30
2022-09-04T12:53:37.104Z,0.40
2022-09-04T12:56:03.825Z,0.10
2022-09-04T12:58:42.907Z,0.08
2022-09-04T13:01:29.727Z,0.00
2022-09-04T13:04:20.872Z,0.20
2022-09-04T13:06:51.518Z,0.00
2022-09-04T13:09:35.835Z,0.10
2022-09-04T13:12:02.167Z,0.20
2022-09-04T13:14:42.767Z,0.00
2022-09-04T13:17:24.432Z,0.00
2022-09-04T13:20:12.992Z,0.00
2022-09-04T13:22:39.426Z,0.00
2022-09-04T13:25:22.399Z,0.00
2022-09-04T13:27:49.160Z,0.00
2022-09-04T13:30:24.375Z,0.05
2022-09-04T13:32:56.479Z,0.10
2022-09-04T13:35:36.578Z,0.00
2022-09-04T13:38:41.778Z,0.00
2022-09-04T13:41:11.029Z,0.03
2022-09-04T13:43:49.217Z,0.10
2022-09-04T13:46:21.067Z,0.17
2022-09-04T13:48:52.101Z,0.10
2022-09-04T13:51:23.184Z,0.00
2022-09-04T13:53:52.239Z,1.02
2022-09-04T13:56:23.124Z,0.45
2022-09-04T13:58:51.472Z,1.73
2022-09-04T14:01:21.732Z,0.00
2022-09-04T14:03:51.941Z,0.00
2022-09-04T14:06:20.330Z,0.13
2022-09-04T14:09:04.855Z,0.10
2022-09-04T14:11:50.948Z,0.38
2022-09-04T14:14:43.074Z,0.30
2022-09-04T14:17:10.216Z,0.10
2022-09-04T14:20:06.259Z,0.10
2022-09-04T14:22:33.602Z,0.00
2022-09-04T14:25:06.659Z,0.30
2022-09-04T14:27:41.847Z,0.10
2022-09-04T14:30:24.470Z,0.00
2022-09-04T14:32:58.188Z,0.10
2022-09-04T14:35:35.784Z,0.10
2022-09-04T14:38:02.337Z,0.10
2022-09-04T14:40:38.402Z,0.10
2022-09-04T14:43:04.668Z,0.32
2022-09-04T14:45:51.796Z,0.10
2022-09-04T14:48:19.621Z,0.10
2022-09-04T14:50:53.691Z,0.47
2022-09-04T14:53:26.271Z,0.00
2022-09-04T14:56:18.595Z,0.00
2022-09-04T14:58:51.813Z,0.40
2022-09-04T15:01:23.371Z,0.25
2022-09-04T15:04:06.152Z,0.10
2022-09-04T15:06:44.762Z,0.03
2022-09-04T15:09:36.038Z,0.10
2022-09-04T15:12:27.113Z,0.20
2022-09-04T15:15:16.830Z,0.13
2022-09-04T15:17:51.484Z,0.10
2022-09-04T15:20:22.200Z,0.00
2022-09-04T15:22:56.034Z,0.20
2022-09-04T15:25:47.897Z,0.00
2022-09-04T15:28:19.489Z,0.00
2022-09-04T15:30:57.660Z,0.00
2022-09-04T15:33:24.121Z,0.08
2022-09-04T15:36:07.843Z,0.20
2022-09-04T15:38:35.170Z,0.10
2022-09-04T15:41:17.746Z,0.10
2022-09-04T15:43:49.039Z,0.20
2022-09-04T15:46:23.098Z,0.00
2022-09-04T15:48:53.310Z,0.13
2022-09-04T15:51:23.527Z,0.10
2022-09-04T15:53:52.799Z,0.10
2022-09-04T15:56:19.088Z,0.00
2022-09-04T15:59:14.566Z,0.20
2022-09-04T16:01:43.120Z,0.45
2022-09-04T16:04:28.154Z,0.20
2022-09-04T16:07:20.435Z,0.00
2022-09-04T16:09:50.143Z,0.05
2022-09-04T16:12:20.475Z,0.00
2022-09-04T16:14:53.269Z,0.10
2022-09-04T16:17:22.604Z,0.20
2022-09-04T16:19:54.425Z,0.45
2022-09-04T16:22:23.766Z,0.10
2022-09-04T16:24:54.515Z,0.10
2022-09-04T16:27:23.249Z,0.63
2022-09-04T16:30:02.959Z,0.10
2022-09-04T16:32:32.088Z,0.20
2022-09-04T16:35:11.967Z,0.15
2022-09-04T16:37:43.432Z,0.00
2022-09-04T16:40:28.170Z,0.10
2022-09-04T16:42:57.552Z,0.20
2022-09-04T16:45:30.087Z,0.10
2022-09-04T16:48:34.588Z,0.00
2022-09-04T16:51:25.059Z,0.20
2022-09-04T16:53:53.001Z,0.00
2022-09-04T16:56:19.303Z,0.13
2022-09-04T16:58:56.505Z,0.10
2022-09-04T17:01:22.880Z,0.00
2022-09-04T17:03:51.387Z,0.40
2022-09-04T17:06:26.558Z,0.20
2022-09-04T17:08:57.790Z,1.48
2022-09-04T17:11:26.827Z,0.20
2022-09-04T17:14:08.331Z,0.35
2022-09-04T17:16:40.302Z,0.25
2022-09-04T17:19:12.769Z,0.35
2022-09-04T17:29:02.019Z,0.32
2022-09-04T17:29:04.694Z,0.20
2022-09-04T17:29:10.935Z,0.30
2022-09-04T17:31:02.060Z,0.43
2022-09-04T17:37:32.861Z,0.73
2022-09-04T17:40:49.261Z,0.90
2022-09-04T17:40:51.161Z,0.55
2022-09-04T17:42:24.177Z,0.50
2022-09-04T17:44:50.849Z,0.32
2022-09-04T17:47:26.634Z,0.38
2022-09-04T17:49:56.663Z,0.30
2022-09-04T17:52:26.811Z,0.65
2022-09-04T17:54:53.394Z,0.63
2022-09-04T17:57:26.155Z,0.43
2022-09-04T17:59:52.444Z,0.40
2022-09-04T18:02:26.969Z,0.77
2022-09-04T18:04:56.389Z,0.52
2022-09-04T18:08:08.060Z,0.40
2022-09-04T18:10:37.310Z,0.43
2022-09-04T18:13:37.157Z,0.47
2022-09-04T18:16:07.714Z,0.30
2022-09-04T18:18:38.348Z,0.40
2022-09-04T18:21:23.654Z,0.60
2022-09-04T18:23:59.598Z,0.22
2022-09-04T18:26:33.981Z,0.30
2022-09-04T18:30:42.883Z,0.20
2022-09-04T18:37:22.644Z,0.30
2022-09-04T18:37:26.215Z,0.20
2022-09-04T18:38:16.253Z,0.63
2022-09-04T18:42:21.861Z,0.50
2022-09-04T18:50:31.189Z,0.52
2022-09-04T18:50:39.755Z,0.40
2022-09-04T18:50:46.758Z,0.32
2022-09-04T18:52:19.425Z,0.30
2022-09-04T18:54:48.141Z,0.70
2022-09-04T18:57:27.002Z,0.38
2022-09-04T19:00:07.773Z,0.23
2022-09-04T19:02:51.453Z,0.28
2022-09-04T19:05:20.452Z,0.60
2022-09-04T19:08:07.238Z,0.60
2022-09-04T19:10:48.295Z,0.50
2022-09-04T19:13:34.915Z,0.50
2022-09-04T19:16:10.646Z,0.73
2022-09-04T19:18:46.023Z,0.25
2022-09-04T19:21:15.382Z,0.30
2022-09-04T19:23:46.278Z,0.32
2022-09-04T19:26:35.011Z,0.30
2022-09-04T19:29:16.414Z,1.83
2022-09-04T19:31:48.471Z,0.60
2022-09-04T19:34:31.227Z,0.55
2022-09-04T19:37:12.178Z,1.17
2022-09-04T19:45:56.146Z,0.82
2022-09-04T19:46:18.373Z,0.20
2022-09-04T19:46:26.110Z,0.55
2022-09-04T19:49:46.457Z,0.47
2022-09-04T19:53:34.662Z,0.30
2022-09-04T19:54:42.236Z,0.25
2022-09-04T19:57:33.240Z,0.68
2022-09-04T20:00:43.207Z,0.90
2022-09-04T20:03:03.389Z,0.38
2022-09-04T20:05:31.363Z,0.40
2022-09-04T20:07:59.373Z,0.77
2022-09-04T20:10:38.294Z,0.70
2022-09-04T20:13:23.535Z,0.43
2022-09-04T20:16:08.439Z,0.50
2022-09-04T20:18:41.989Z,1.10
2022-09-04T20:21:08.322Z,0.90
2022-09-04T20:23:44.067Z,0.43
2022-09-04T20:26:19.529Z,0.70
2022-09-04T20:28:54.924Z,0.65
2022-09-04T20:31:35.834Z,1.13
2022-09-04T20:34:09.540Z,1.02
2022-09-04T20:36:37.845Z,0.80
2022-09-04T20:39:18.349Z,0.98
2022-09-04T20:41:48.516Z,1.23
2022-09-04T20:44:40.685Z,1.00
2022-09-04T20:52:41.314Z,1.73
2022-09-04T20:52:55.270Z,1.27
2022-09-04T20:53:14.823Z,1.40
2022-09-04T20:55:47.088Z,1.17
2022-09-04T21:03:05.179Z,1.20
2022-09-04T21:03:08.103Z,0.75
2022-09-04T21:04:14.310Z,1.00
2022-09-04T21:06:56.795Z,1.48
2022-09-04T21:11:55.566Z,1.27
2022-09-04T21:14:45.088Z,1.02
2022-09-04T21:17:41.530Z,0.80
2022-09-04T21:20:26.371Z,1.27
2022-09-04T21:23:11.534Z,1.33
2022-09-04T21:25:56.401Z,2.17
2022-09-04T21:28:22.966Z,1.10
2022-09-04T21:31:09.639Z,1.45
2022-09-04T21:33:41.081Z,1.60
2022-09-04T21:36:27.621Z,1.60
2022-09-04T21:38:59.814Z,1.63
2022-09-04T21:41:58.618Z,1.15
2022-09-04T21:44:34.431Z,1.17
2022-09-04T21:47:08.603Z,1.15
2022-09-04T21:50:13.677Z,2.78
2022-09-04T21:52:45.908Z,1.33
2022-09-04T21:59:42.525Z,2.60
2022-09-04T22:02:35.105Z,1.70
2022-09-04T22:02:35.610Z,1.50
2022-09-04T22:04:30.126Z,1.92
2022-09-04T22:08:58.729Z,1.58
2022-09-04T22:13:39.191Z,1.05
2022-09-04T22:13:43.499Z,1.38
2022-09-04T22:16:05.464Z,1.40
2022-09-04T22:19:01.264Z,1.50
2022-09-04T22:21:30.237Z,1.38
2022-09-04T22:24:08.632Z,0.88
2022-09-04T22:27:04.413Z,2.05
2022-09-04T22:29:40.071Z,1.42
2022-09-04T22:32:24.178Z,1.63
2022-09-04T22:35:14.540Z,1.23
2022-09-04T22:38:00.651Z,1.42
2022-09-04T22:40:56.913Z,1.40
2022-09-04T22:43:24.442Z,1.83
2022-09-04T22:46:09.457Z,0.85
2022-09-04T22:48:35.762Z,1.55
2022-09-04T22:51:02.052Z,1.70
2022-09-04T22:53:31.129Z,1.20
2022-09-04T22:56:25.021Z,1.73
2022-09-04T22:59:20.274Z,1.45
2022-09-04T23:02:11.649Z,1.73
2022-09-04T23:04:59.206Z,1.58
2022-09-04T23:13:50.172Z,1.73
2022-09-04T23:13:53.023Z,2.03
2022-09-04T23:14:00.923Z,1.77
2022-09-04T23:16:08.987Z,2.30
2022-09-04T23:26:32.481Z,1.83
2022-09-04T23:26:42.361Z,1.67
2022-09-04T23:26:46.439Z,1.95
2022-09-04T23:28:01.947Z,2.03
2022-09-04T23:31:07.207Z,1.75
2022-09-04T23:33:42.113Z,1.88
2022-09-04T23:36:08.402Z,2.30
2022-09-04T23:38:42.804Z,1.75
2022-09-04T23:41:19.789Z,1.75
2022-09-04T23:43:46.068Z,1.75
2022-09-04T23:46:38.829Z,1.98
2022-09-04T23:49:24.574Z,2.25
2022-09-04T23:51:57.106Z,2.00
2022-09-04T23:54:38.529Z,1.88
2022-09-04T23:57:26.011Z,3.03
